Welcome to Northern Hawkes Bay. New Zealand.
PWS Header
      nz Flag



Hit Counter


W3C Valid W3C Valid logo


    Wairoa

Select any of the Stations below to visit their websites.










Historic Data from Weather Underground
Select the location of interest below. Wairoa is the default. Please have patience, this Data is slow to load in.
Northern Hawkes Bay Historical Data
Daily Summary for December 1, 2017 Units:  English    Metric   Both
« Previous Day
Next Day »
Daily Weekly Monthly Yearly Custom
  High: Low: Average:
Temperature: 77.9 °F 53.8 °F 66.7 °F
Dew Point: 63.3 °F 53.1 °F 58.5 °F
Humidity: 99% 54% 76%
Wind Speed: 6.9mph 0mph 2.4mph
Wind Gust: 14.5mph - -
Wind- - South
Pressure: 30.4 in 30.3 in -
Precipitation: 0 in    
Historical Graphs
 
 
Tabular Data for December 1, 2017
Time Temperature Dew Point Pressure Wind Wind Speed Wind Gust Humidity Rainfall Rate (Hourly) solar
00:03 59.2 °F 58.1 °F 30.3 in Calm     96% 0 in 0 W/m2
00:08 59 °F 57.9 °F 30.3 in Calm     96% 0 in 0 W/m2
00:13 59 °F 57.9 °F 30.3 in Calm     96% 0 in 0 W/m2
00:23 58.6 °F 57.7 °F 30.3 in Calm     97% 0 in 0 W/m2
00:28 58.5 °F 57.6 °F 30.3 in Calm     97% 0 in 0 W/m2
00:33 58.3 °F 57.7 °F 30.3 in Calm     98% 0 in 0 W/m2
00:38 58.1 °F 57.6 °F 30.3 in Calm     98% 0 in 0 W/m2
00:43 57.9 °F 57.4 °F 30.3 in NW 0.7 mph 1.6 mph 98% 0 in 0 W/m2
00:48 57.9 °F 57.4 °F 30.3 in NW 0.7 mph 2.2 mph 98% 0 in 0 W/m2
00:53 57.9 °F 57.4 °F 30.3 in NW 2.2 mph 3.1 mph 98% 0 in 0 W/m2
01:11 57.4 °F 57 °F 30.3 in North 0.7 mph 1.6 mph 99% 0 in 0 W/m2
01:16 57.6 °F 57.4 °F 30.3 in North 0.7 mph 1.6 mph 99% 0 in 0 W/m2
01:21 57.6 °F 57.4 °F 30.3 in Calm   1.6 mph 99% 0 in 0 W/m2
01:26 57.6 °F 57.4 °F 30.3 in Calm   1.6 mph 99% 0 in 0 W/m2
01:31 57.6 °F 57.4 °F 30.3 in Calm     99% 0 in 0 W/m2
01:36 57.6 °F 57.4 °F 30.3 in Calm     99% 0 in 0 W/m2
01:41 57.4 °F 57 °F 30.3 in North 0.7 mph 2.2 mph 99% 0 in 0 W/m2
01:46 57.4 °F 57 °F 30.3 in North 1.6 mph 2.2 mph 99% 0 in 0 W/m2
02:05 57.4 °F 57 °F 30.3 in NNW 0.7 mph 2.2 mph 99% 0 in 0 W/m2
02:10 57.2 °F 56.8 °F 30.3 in NNW 1.6 mph 2.2 mph 99% 0 in 0 W/m2
02:20 57 °F 56.8 °F 30.3 in NNW 1.6 mph 2.2 mph 99% 0 in 0 W/m2
02:25 56.8 °F 56.7 °F 30.3 in Calm   2.2 mph 99% 0 in 0 W/m2
02:35 56.5 °F 56.1 °F 30.3 in Calm     99% 0 in 0 W/m2
02:45 56.3 °F 55.9 °F 30.3 in Calm     99% 0 in 0 W/m2
03:02 56.1 °F 55.9 °F 30.3 in NW 1.6 mph 3.1 mph 99% 0 in 0 W/m2
03:07 56.1 °F 55.9 °F 30.3 in NNW 2.2 mph 3.8 mph 99% 0 in 0 W/m2
03:17 56.3 °F 55.9 °F 30.3 in NNW 3.1 mph 4.5 mph 99% 0 in 0 W/m2
03:27 56.3 °F 55.9 °F 30.3 in NNW 0.7 mph 4.5 mph 99% 0 in 0 W/m2
03:37 56.1 °F 55.9 °F 30.3 in North 0.7 mph 3.1 mph 99% 0 in 0 W/m2
03:47 55.8 °F 55.6 °F 30.3 in NNE 0.7 mph 2.2 mph 99% 0 in 0 W/m2
03:52 55.6 °F 55.2 °F 30.3 in Calm   2.2 mph 99% 0 in 0 W/m2
03:57 55.4 °F 55 °F 30.3 in NNE 0.7 mph 2.2 mph 99% 0 in 0 W/m2
04:07 55.2 °F 54.3 °F 30.3 in Calm   2.2 mph 97% 0 in 0 W/m2
04:17 55.2 °F 54.3 °F 30.3 in Calm   1.6 mph 97% 0 in 0 W/m2
04:34 54.7 °F 54 °F 30.3 in Calm   1.6 mph 97% 0 in 0 W/m2
04:39 54.5 °F 53.8 °F 30.3 in NW 0.7 mph 2.2 mph 97% 0 in 0 W/m2
04:44 54.5 °F 53.8 °F 30.3 in NW 0.7 mph 2.2 mph 97% 0 in 0 W/m2
05:04 54.3 °F 53.4 °F 30.3 in NNW 1.6 mph 3.1 mph 97% 0 in 0 W/m2
05:14 54.1 °F 53.2 °F 30.3 in NNW 1.6 mph 3.1 mph 97% 0 in 0 W/m2
05:19 54 °F 53.1 °F 30.3 in NNW 1.6 mph 3.1 mph 97% 0 in 0 W/m2
05:24 53.8 °F 53.1 °F 30.3 in NW 1.6 mph 3.1 mph 97% 0 in 0 W/m2
05:29 53.8 °F 53.1 °F 30.3 in NW 1.6 mph 3.1 mph 97% 0 in 0 W/m2
05:34 53.8 °F 53.1 °F 30.3 in NW 2.2 mph 3.1 mph 97% 0 in 0 W/m2
05:39 53.8 °F 53.1 °F 30.3 in NW 1.6 mph 3.8 mph 97% 0 in 0 W/m2
05:54 54.1 °F 53.2 °F 30.3 in NNW 2.2 mph 3.8 mph 97% 0 in 9 W/m2
06:04 54.7 °F 54 °F 30.3 in NNW 2.2 mph 4.5 mph 97% 0 in 18 W/m2
06:14 54.7 °F 54 °F 30.3 in NW 2.2 mph 3.8 mph 97% 0 in 25 W/m2
06:19 54.9 °F 54 °F 30.3 in NW 1.6 mph 3.8 mph 97% 0 in 41 W/m2
06:24 55.2 °F 54.3 °F 30.4 in NNW 3.8 mph 6 mph 97% 0 in 69 W/m2
06:34 55.9 °F 55.8 °F 30.3 in NNW 3.1 mph 6.9 mph 99% 0 in 84 W/m2
06:39 56.1 °F 55.9 °F 30.4 in NNW 2.2 mph 6.9 mph 99% 0 in 93 W/m2
06:45 56.3 °F 55.9 °F 30.4 in NNW 3.1 mph 7.6 mph 99% 0 in 112 W/m2
07:01 57.2 °F 56.8 °F 30.4 in NNW 2.2 mph 6 mph 99% 0 in 128 W/m2
07:06 57.7 °F 57.6 °F 30.4 in NNW 5.4 mph 7.6 mph 99% 0 in 138 W/m2
07:11 57.7 °F 57.6 °F 30.4 in NNW 5.4 mph 8.3 mph 99% 0 in 148 W/m2
07:16 58.1 °F 57.7 °F 30.4 in NNW 3.8 mph 8.3 mph 99% 0 in 158 W/m2
07:27 59 °F 58.5 °F 30.4 in NNW 3.1 mph 6.9 mph 98% 0 in 169 W/m2
07:37 59.7 °F 58.3 °F 30.4 in NNW 3.8 mph 8.3 mph 95% 0 in 208 W/m2
07:47 60.1 °F 58.5 °F 30.4 in NNW 4.5 mph 9.2 mph 94% 0 in 231 W/m2
08:12 61.7 °F 59.2 °F 30.4 in North 3.1 mph 6.9 mph 91% 0 in 283 W/m2
08:17 62.6 °F 59 °F 30.4 in North 3.8 mph 6.9 mph 88% 0 in 299 W/m2
08:22 62.8 °F 58.5 °F 30.4 in NNW 2.2 mph 6.9 mph 86% 0 in 313 W/m2
08:27 64.2 °F 60.1 °F 30.4 in NNW 0.7 mph 6.9 mph 86% 0 in 327 W/m2
08:32 64.8 °F 60.3 °F 30.4 in NNW 5.4 mph 7.6 mph 85% 0 in 342 W/m2
08:37 64.8 °F 59.7 °F 30.4 in NNW 3.8 mph 7.6 mph 84% 0 in 356 W/m2
08:47 65.5 °F 60.4 °F 30.4 in NNW 2.2 mph 7.6 mph 84% 0 in 383 W/m2
08:52 66 °F 60.4 °F 30.4 in NNW 3.1 mph 7.6 mph 82% 0 in 398 W/m2
08:57 66 °F 60.1 °F 30.4 in NNW 3.8 mph 6 mph 81% 0 in 412 W/m2
09:02 66.6 °F 60.6 °F 30.4 in NNW 3.1 mph 6 mph 81% 0 in 428 W/m2
09:07 67.3 °F 61 °F 30.4 in NNW 2.2 mph 5.4 mph 80% 0 in 444 W/m2
09:08 67.6 °F 61.3 °F 30.4 in NNW 2.2 mph 5.4 mph 80% 0 in 448 W/m2
09:18 68.2 °F 60.4 °F 30.4 in NNW 0.7 mph 5.4 mph 76% 0 in 482 W/m2
09:28 71.1 °F 61.5 °F 30.4 in East 2.2 mph 4.5 mph 72% 0 in 526 W/m2
09:38 71.4 °F 60.3 °F 30.4 in NE 0.7 mph 5.4 mph 68% 0 in 561 W/m2
09:43 71.6 °F 60.1 °F 30.4 in Calm   4.5 mph 67% 0 in 580 W/m2
09:48 72.3 °F 58.6 °F 30.4 in NNE 1.6 mph 5.4 mph 62% 0 in 599 W/m2
09:53 71.6 °F 58.5 °F 30.4 in ENE 2.2 mph 10.7 mph 63% 0 in 201 W/m2
10:03 71.2 °F 61.9 °F 30.4 in SSE 4.5 mph 8.3 mph 72% 0 in 658 W/m2
10:08 70.5 °F 61.5 °F 30.4 in SSE 6 mph 9.2 mph 73% 0 in 673 W/m2
10:13 70.2 °F 61.5 °F 30.4 in SSE 4.5 mph 9.2 mph 74% 0 in 684 W/m2
10:23 70.5 °F 61.9 °F 30.4 in SE 3.8 mph 9.2 mph 74% 0 in 708 W/m2
10:28 70.5 °F 61.5 °F 30.4 in SSE 3.1 mph 9.2 mph 73% 0 in 720 W/m2
10:38 70.3 °F 61 °F 30.4 in SSE 1.6 mph 9.8 mph 72% 0 in 739 W/m2
10:43 71.2 °F 60.3 °F 30.4 in SSE 4.5 mph 9.8 mph 68% 0 in 753 W/m2
10:48 71.2 °F 59.4 °F 30.4 in SE 3.8 mph 9.2 mph 66% 0 in 760 W/m2
10:58 71.2 °F 61 °F 30.4 in SE 2.2 mph 9.2 mph 70% 0 in 775 W/m2
11:26 71.6 °F 60.4 °F 30.4 in SE 6.9 mph 14.5 mph 68% 0 in 805 W/m2
11:36 71.6 °F 60.1 °F 30.4 in SE 2.2 mph 14.5 mph 67% 0 in 812 W/m2
11:46 72.5 °F 60.1 °F 30.4 in SE 2.2 mph 9.8 mph 65% 0 in 824 W/m2
12:02 72.5 °F 59.7 °F 30.4 in ESE 1.6 mph 9.2 mph 64% 0 in 829 W/m2
12:07 73 °F 60.3 °F 30.4 in SE 4.5 mph 10.7 mph 64% 0 in 831 W/m2
12:17 72.1 °F 60.3 °F 30.4 in SE 4.5 mph 13.6 mph 66% 0 in 831 W/m2
12:18 72.1 °F 60.6 °F 30.4 in SE 2.2 mph 13.6 mph 67% 0 in 831 W/m2
12:28 72.1 °F 61.9 °F 30.4 in SSE 3.8 mph 12.1 mph 70% 0 in 831 W/m2
12:33 72.7 °F 62.4 °F 30.4 in SSE 6.9 mph 12.1 mph 70% 0 in 830 W/m2
12:38 72.5 °F 62.6 °F 30.4 in SSE 3.1 mph 13 mph 71% 0 in 831 W/m2
12:43 72.9 °F 62.1 °F 30.4 in SSE 3.1 mph 13 mph 69% 0 in 829 W/m2
12:48 73 °F 61.9 °F 30.4 in SE 5.4 mph 9.2 mph 68% 0 in 828 W/m2
12:53 73.2 °F 63.3 °F 30.4 in SE 4.5 mph 9.2 mph 71% 0 in 830 W/m2
12:58 73.2 °F 62.4 °F 30.4 in SSE 3.1 mph 9.2 mph 69% 0 in 827 W/m2
13:03 74.3 °F 62.2 °F 30.4 in ESE 6 mph 11.4 mph 66% 0 in 824 W/m2
13:08 73.9 °F 62.2 °F 30.4 in ESE 3.1 mph 11.4 mph 67% 0 in 821 W/m2
13:13 73.9 °F 61.9 °F 30.4 in SE 6 mph 9.8 mph 66% 0 in 817 W/m2
13:18 74.1 °F 62.4 °F 30.4 in SE 3.1 mph 9.8 mph 67% 0 in 812 W/m2
13:28 75 °F 61.5 °F 30.4 in SE 3.1 mph 11.4 mph 63% 0 in 802 W/m2
13:33 75.2 °F 61.9 °F 30.4 in SE 1.6 mph 11.4 mph 63% 0 in 795 W/m2
13:38 75.9 °F 63 °F 30.4 in SE 2.2 mph 11.4 mph 64% 0 in 802 W/m2
13:43 75.9 °F 62.1 °F 30.4 in SE 3.8 mph 9.8 mph 62% 0 in 791 W/m2
13:48 75.9 °F 62.4 °F 30.4 in SE 2.2 mph 9.8 mph 63% 0 in 785 W/m2
14:08 75 °F 62.4 °F 30.3 in SE 3.8 mph 10.7 mph 65% 0 in 753 W/m2
14:13 75.4 °F 61 °F 30.3 in SE 3.1 mph 10.7 mph 61% 0 in 751 W/m2
14:23 75.9 °F 62.4 °F 30.3 in ESE 5.4 mph 12.1 mph 63% 0 in 738 W/m2
14:33 76.6 °F 62.8 °F 30.3 in SE 5.4 mph 9.8 mph 62% 0 in 725 W/m2
14:38 76.6 °F 62.2 °F 30.3 in SSE 3.8 mph 9.8 mph 61% 0 in 718 W/m2
14:43 76.6 °F 62.2 °F 30.3 in SE 5.4 mph 9.8 mph 61% 0 in 709 W/m2
14:48 76.6 °F 62.2 °F 30.3 in ESE 3.1 mph 9.2 mph 61% 0 in 702 W/m2
14:53 76.8 °F 62.4 °F 30.3 in ESE 3.1 mph 9.8 mph 61% 0 in 696 W/m2
14:58 76.6 °F 61.9 °F 30.3 in ESE 2.2 mph 9.8 mph 60% 0 in 688 W/m2
15:03 77.4 °F 61.5 °F 30.3 in SE 4.5 mph 9.8 mph 58% 0 in 679 W/m2
15:08 76.6 °F 61.3 °F 30.3 in ESE 1.6 mph 9.8 mph 59% 0 in 669 W/m2
15:13 77 °F 61.2 °F 30.3 in East 1.6 mph 10.7 mph 58% 0 in 657 W/m2
15:23 77.5 °F 60.6 °F 30.3 in ESE 3.1 mph 9.2 mph 56% 0 in 638 W/m2
15:28 77.9 °F 61 °F 30.3 in ESE 4.5 mph 9.2 mph 56% 0 in 636 W/m2
15:33 77.5 °F 60.6 °F 30.3 in ESE 3.1 mph 9.8 mph 56% 0 in 618 W/m2
15:38 77.5 °F 61.2 °F 30.3 in SE 2.2 mph 9.8 mph 57% 0 in 607 W/m2
15:44 77.5 °F 60.6 °F 30.3 in SE 3.1 mph 9.8 mph 56% 0 in 596 W/m2
16:06 77.5 °F 59.5 °F 30.3 in SE 3.8 mph 9.2 mph 54% 0 in 552 W/m2
16:15 77.2 °F 59.4 °F 30.3 in ESE 4.5 mph 9.2 mph 54% 0 in 531 W/m2
16:20 76.8 °F 60.1 °F 30.3 in ESE 3.8 mph 9.2 mph 56% 0 in 520 W/m2
16:25 77.2 °F 59.7 °F 30.3 in SE 5.4 mph 9.2 mph 55% 0 in 506 W/m2
16:27 77 °F 59.5 °F 30.3 in ESE 3.8 mph 9.2 mph 55% 0 in 505 W/m2
16:33 77.2 °F 59.7 °F 30.3 in ESE 3.8 mph 10.7 mph 55% 0 in 489 W/m2
16:38 77.2 °F 59.7 °F 30.3 in SE 3.1 mph 10.7 mph 55% 0 in 476 W/m2
16:42 77.2 °F 59.4 °F 30.3 in SE 4.5 mph 10.7 mph 54% 0 in 467 W/m2
16:47 77.4 °F 59.5 °F 30.3 in SE 6 mph 10.7 mph 54% 0 in 456 W/m2
16:52 76.8 °F 60.1 °F 30.3 in ESE 6 mph 11.4 mph 56% 0 in 443 W/m2
16:57 77 °F 59.5 °F 30.3 in ESE 3.1 mph 11.4 mph 55% 0 in 430 W/m2
16:58 77.2 °F 59.7 °F 30.3 in ESE 5.4 mph 11.4 mph 55% 0 in 430 W/m2
17:03 77.9 °F 60.1 °F 30.3 in ESE 4.5 mph 10.7 mph 54% 0 in 417 W/m2
17:08 77.5 °F 59.5 °F 30.3 in ESE 3.1 mph 10.7 mph 54% 0 in 404 W/m2
17:13 77.7 °F 59.7 °F 30.3 in ESE 3.8 mph 10.7 mph 54% 0 in 391 W/m2
17:18 77.5 °F 59.5 °F 30.3 in SE 3.8 mph 9.2 mph 54% 0 in 377 W/m2
17:33 76.6 °F 59.7 °F 30.3 in ESE 6.9 mph 9.8 mph 56% 0 in 339 W/m2
17:38 76.1 °F 59.4 °F 30.3 in ESE 3.8 mph 10.7 mph 56% 0 in 326 W/m2
17:48 75.7 °F 59.5 °F 30.3 in East 3.8 mph 11.4 mph 57% 0 in 303 W/m2
17:58 76.1 °F 59.7 °F 30.3 in ESE 2.2 mph 9.8 mph 57% 0 in 277 W/m2
18:03 76.1 °F 59.4 °F 30.3 in ESE 5.4 mph 11.4 mph 56% 0 in 266 W/m2
18:08 75.6 °F 59.4 °F 30.3 in ESE 5.4 mph 11.4 mph 57% 0 in 256 W/m2
18:24 76.8 °F 60.4 °F 30.3 in ESE 4.5 mph 9.8 mph 57% 0 in 219 W/m2
18:29 76.1 °F 59.4 °F 30.3 in East 4.5 mph 9.2 mph 56% 0 in 208 W/m2
18:35 76.6 °F 59.7 °F 30.3 in ESE 3.8 mph 9.2 mph 56% 0 in 197 W/m2
18:40 76.1 °F 59.4 °F 30.3 in ESE 6 mph 9.8 mph 56% 0 in 187 W/m2
18:45 75.7 °F 59 °F 30.3 in East 6 mph 9.8 mph 56% 0 in 176 W/m2
18:50 76.1 °F 59.4 °F 30.3 in East 4.5 mph 9.2 mph 56% 0 in 167 W/m2
18:55 75.9 °F 58.6 °F 30.3 in East 5.4 mph 9.8 mph 55% 0 in 157 W/m2
19:00 75.7 °F 57.9 °F 30.3 in ENE 5.4 mph 9.8 mph 54% 0 in 149 W/m2
19:10 75.9 °F 58.1 °F 30.3 in NE 5.4 mph 13.6 mph 54% 0 in 129 W/m2
19:20 74.7 °F 57.9 °F 30.3 in NE 6.9 mph 11.4 mph 56% 0 in 109 W/m2
19:25 74.3 °F 58.1 °F 30.3 in NE 5.4 mph 11.4 mph 57% 0 in 98 W/m2
19:30 73.9 °F 57.7 °F 30.3 in NE 5.4 mph 10.7 mph 57% 0 in 88 W/m2
19:35 73.8 °F 57.6 °F 30.3 in ENE 3.1 mph 8.3 mph 57% 0 in 77 W/m2
19:40 73.4 °F 57.4 °F 30.3 in ENE 3.1 mph 8.3 mph 57% 0 in 67 W/m2
19:50 72.1 °F 57.6 °F 30.3 in NE 3.8 mph 8.3 mph 60% 0 in 42 W/m2
19:55 71.6 °F 57 °F 30.3 in NE 1.6 mph 8.3 mph 60% 0 in 21 W/m2
20:00 70.5 °F 57.4 °F 30.3 in NNE 4.5 mph 8.3 mph 63% 0 in 10 W/m2
20:05 69.3 °F 57 °F 30.3 in NNE 3.1 mph 8.3 mph 65% 0 in 6 W/m2
20:10 68.7 °F 56.8 °F 30.3 in NE 0.7 mph 8.3 mph 66% 0 in 4 W/m2
20:20 67.8 °F 57.4 °F 30.3 in NNE 1.6 mph 4.5 mph 69% 0 in 0 W/m2
20:25 67.5 °F 57.4 °F 30.3 in Calm   4.5 mph 70% 0 in 0 W/m2
20:30 67.1 °F 57.4 °F 30.3 in NE 0.7 mph 4.5 mph 71% 0 in 0 W/m2
20:35 66.9 °F 57.2 °F 30.3 in Calm   4.5 mph 71% 0 in 0 W/m2
20:40 66.7 °F 57 °F 30.3 in NE 0.7 mph 5.4 mph 71% 0 in 0 W/m2
20:45 66.4 °F 56.7 °F 30.3 in Calm   5.4 mph 71% 0 in 0 W/m2
20:55 65.7 °F 57.2 °F 30.3 in Calm   3.1 mph 74% 0 in 0 W/m2
21:00 65.3 °F 56.8 °F 30.3 in Calm   3.1 mph 74% 0 in 0 W/m2
21:05 64.9 °F 56.8 °F 30.3 in Calm   0.7 mph 75% 0 in 0 W/m2
21:10 64.6 °F 56.5 °F 30.3 in Calm   0.7 mph 75% 0 in 0 W/m2
21:15 64.4 °F 56.3 °F 30.3 in Calm   0.7 mph 75% 0 in 0 W/m2
21:20 64.4 °F 56.7 °F 30.3 in Calm   2.2 mph 76% 0 in 0 W/m2
21:25 64 °F 55.9 °F 30.3 in Calm   2.2 mph 75% 0 in 0 W/m2
21:30 64 °F 56.3 °F 30.3 in Calm   0.7 mph 76% 0 in 0 W/m2
21:36 63.9 °F 56.5 °F 30.3 in North 0.7 mph 3.8 mph 77% 0 in 0 W/m2
21:41 63.9 °F 56.5 °F 30.4 in North 0.7 mph 3.8 mph 77% 0 in 0 W/m2
21:46 63.7 °F 56.7 °F 30.3 in Calm   3.1 mph 78% 0 in 0 W/m2
21:52 63.5 °F 56.5 °F 30.4 in Calm   2.2 mph 78% 0 in 0 W/m2
21:57 63.5 °F 56.5 °F 30.3 in Calm   0.7 mph 78% 0 in 0 W/m2
22:02 63.1 °F 56.1 °F 30.3 in Calm   1.6 mph 78% 0 in 0 W/m2
22:13 63 °F 56.7 °F 30.4 in Calm   2.2 mph 80% 0 in 0 W/m2
22:18 63.1 °F 56.8 °F 30.4 in Calm   2.2 mph 80% 0 in 0 W/m2
22:23 62.8 °F 56.5 °F 30.4 in Calm   1.6 mph 80% 0 in 0 W/m2
22:28 62.6 °F 56.7 °F 30.4 in Calm   1.6 mph 81% 0 in 0 W/m2
22:32 62.6 °F 56.7 °F 30.4 in Calm   0.7 mph 81% 0 in 0 W/m2
22:37 62.6 °F 56.7 °F 30.4 in Calm   0.7 mph 81% 0 in 0 W/m2
22:42 62.2 °F 56.7 °F 30.4 in Calm     82% 0 in 0 W/m2
22:52 62.1 °F 56.5 °F 30.4 in Calm   0.7 mph 82% 0 in 0 W/m2
22:57 61.9 °F 56.7 °F 30.4 in Calm   0.7 mph 83% 0 in 0 W/m2
23:02 61.7 °F 56.5 °F 30.4 in Calm     83% 0 in 0 W/m2
23:12 61.5 °F 56.7 °F 30.4 in Calm     84% 0 in 0 W/m2
23:17 61.5 °F 56.7 °F 30.4 in Calm     84% 0 in 0 W/m2
23:22 61.3 °F 56.5 °F 30.3 in Calm     84% 0 in 0 W/m2
23:32 61.7 °F 57.2 °F 30.3 in North 0.7 mph 3.8 mph 85% 0 in 0 W/m2
23:37 61.7 °F 56.8 °F 30.4 in Calm   3.1 mph 84% 0 in 0 W/m2
23:42 61.9 °F 57 °F 30.4 in Calm   3.1 mph 84% 0 in 0 W/m2
23:52 62.1 °F 57.2 °F 30.3 in Calm   3.1 mph 84% 0 in 0 W/m2
23:57 62.1 °F 57.2 °F 30.3 in North 1.6 mph 4.5 mph 84% 0 in 0 W/m2
Northern Hawkes Bay. New Zealand Historic Data
Compliments of Weather Underground - 2 mb